Time;durP1;ratioP1;P1;durP2;ratioP2;P2;SDS_P1;SDS_P2;PMS_P1;PMS_P2;Temp;Humidity;BMP_temperature;BMP_pressure;BME280_temperature;BME280_humidity;BME280_pressure;Samples;Min_cycle;Max_cycle;Signal;HPM_P1;HPM_P2
2023/12/26 00:00:39;;;;;;;;;;;230.80;2252.80;;;;;;4956464;28;20342;-78
2023/12/26 00:03:06;;;;;;;;;;;230.90;2252.80;;;;;;4975019;28;20387;-78
2023/12/26 00:05:32;;;;;;;;;;;230.80;2252.80;;;;;;4965290;28;20009;-78
2023/12/26 00:07:58;;;;;;;;;;;230.80;2252.80;;;;;;4958308;28;19993;-78
2023/12/26 00:10:23;;;;;;;;;;;230.90;2252.80;;;;;;4976175;28;19961;-78
2023/12/26 00:12:49;;;;;;;;;;;230.90;2252.80;;;;;;4975406;28;20352;-78
2023/12/26 00:15:17;;;;;;;;;;;230.80;2252.80;;;;;;4975642;28;19949;-78
2023/12/26 00:17:43;;;;;;;;;;;230.80;2252.80;;;;;;4956941;28;20261;-78
2023/12/26 00:20:08;;;;;;;;;;;230.90;2252.80;;;;;;4974361;28;19910;-77
2023/12/26 00:22:37;;;;;;;;;;;230.80;2252.80;;;;;;4969904;28;20363;-78
2023/12/26 00:25:06;;;;;;;;;;;230.70;2252.80;;;;;;4961463;28;19929;-83
2023/12/26 00:27:32;;;;;;;;;;;230.70;2252.80;;;;;;4970244;28;19918;-78
2023/12/26 00:29:58;;;;;;;;;;;230.80;2252.80;;;;;;4957090;28;20319;-77
2023/12/26 00:32:23;;;;;;;;;;;230.80;2252.80;;;;;;4975137;28;20370;-78
2023/12/26 00:34:49;;;;;;;;;;;230.90;2252.80;;;;;;4955927;28;20363;-78
2023/12/26 00:37:15;;;;;;;;;;;230.80;2252.80;;;;;;4974845;28;20340;-78
2023/12/26 00:39:40;;;;;;;;;;;230.80;2252.80;;;;;;4957903;28;19938;-78
2023/12/26 00:42:06;;;;;;;;;;;230.80;2252.80;;;;;;4973490;28;19957;-79
2023/12/26 00:44:32;;;;;;;;;;;230.90;2252.80;;;;;;4975038;28;19914;-78
2023/12/26 00:46:58;;;;;;;;;;;230.90;2252.80;;;;;;4973581;28;19927;-78
2023/12/26 00:49:23;;;;;;;;;;;230.90;2252.80;;;;;;4968668;28;19989;-78
2023/12/26 00:51:49;;;;;;;;;;;230.90;2252.80;;;;;;4955650;28;19910;-78
2023/12/26 00:54:15;;;;;;;;;;;230.80;2252.80;;;;;;4974460;28;19981;-78
2023/12/26 00:56:40;;;;;;;;;;;230.80;2252.80;;;;;;4957797;28;19953;-78
2023/12/26 00:59:06;;;;;;;;;;;230.70;2252.80;;;;;;4973770;28;20005;-78
2023/12/26 01:01:32;;;;;;;;;;;230.70;2252.80;;;;;;4974781;28;20363;-78
2023/12/26 01:03:57;;;;;;;;;;;230.60;2252.80;;;;;;4970562;28;19953;-78
2023/12/26 01:06:23;;;;;;;;;;;230.50;2252.80;;;;;;4974921;28;19914;-78
2023/12/26 01:08:49;;;;;;;;;;;230.50;2252.80;;;;;;4974823;28;19948;-78
2023/12/26 01:11:14;;;;;;;;;;;230.60;2252.80;;;;;;4974880;28;20006;-78
2023/12/26 01:13:40;;;;;;;;;;;230.60;2252.80;;;;;;4958223;28;20249;-78
2023/12/26 01:16:06;;;;;;;;;;;230.60;2252.80;;;;;;4954986;28;19914;-78
2023/12/26 01:18:32;;;;;;;;;;;230.60;2252.80;;;;;;4957838;28;19910;-79
2023/12/26 01:20:57;;;;;;;;;;;230.50;2252.80;;;;;;4974811;28;19929;-78
2023/12/26 01:23:23;;;;;;;;;;;230.60;2252.80;;;;;;4957967;28;20013;-79
2023/12/26 01:25:49;;;;;;;;;;;230.70;2252.80;;;;;;4957662;28;19914;-78
2023/12/26 01:28:15;;;;;;;;;;;230.60;2252.80;;;;;;4975261;28;20410;-79
2023/12/26 01:30:41;;;;;;;;;;;230.60;2252.80;;;;;;4957870;28;19989;-78
2023/12/26 01:33:07;;;;;;;;;;;231.00;2252.80;;;;;;4958043;28;19996;-78
2023/12/26 01:35:33;;;;;;;;;;;230.60;2252.80;;;;;;4957785;28;19949;-78
2023/12/26 01:37:58;;;;;;;;;;;230.50;2252.80;;;;;;4974960;28;19906;-78
2023/12/26 01:40:24;;;;;;;;;;;230.40;2252.80;;;;;;4957718;28;19913;-78
2023/12/26 01:42:50;;;;;;;;;;;205.50;2252.80;;;;;;4975148;28;19978;-78
2023/12/26 01:45:16;;;;;;;;;;;205.40;2252.80;;;;;;4974669;28;19968;-78
2023/12/26 01:47:46;;;;;;;;;;;205.50;2252.80;;;;;;4957635;28;19914;-78
2023/12/26 01:50:14;;;;;;;;;;;205.50;2252.80;;;;;;4974932;28;20004;-78
2023/12/26 01:52:40;;;;;;;;;;;205.50;2252.80;;;;;;4974730;28;19957;-78
2023/12/26 01:55:07;;;;;;;;;;;205.30;2252.80;;;;;;4974981;28;20014;-78
2023/12/26 01:57:34;;;;;;;;;;;205.30;2252.80;;;;;;4974760;28;19906;-78
2023/12/26 02:00:01;;;;;;;;;;;205.30;2252.80;;;;;;4974909;28;19910;-78
2023/12/26 02:02:28;;;;;;;;;;;205.50;2252.80;;;;;;4974930;28;19906;-78
2023/12/26 02:04:54;;;;;;;;;;;205.70;2252.80;;;;;;4974602;28;19910;-78
2023/12/26 02:07:19;;;;;;;;;;;230.40;2252.80;;;;;;4974593;28;19972;-78
2023/12/26 02:09:45;;;;;;;;;;;230.40;2252.80;;;;;;4975041;28;19941;-78
2023/12/26 02:12:11;;;;;;;;;;;230.50;2252.80;;;;;;4960654;28;20334;-78
2023/12/26 02:14:36;;;;;;;;;;;230.50;2252.80;;;;;;4961388;28;19973;-78
2023/12/26 02:17:03;;;;;;;;;;;230.50;2252.80;;;;;;4978201;28;19929;-78
2023/12/26 02:19:29;;;;;;;;;;;230.40;2252.80;;;;;;4961079;28;19906;-78
2023/12/26 02:21:55;;;;;;;;;;;230.50;2252.80;;;;;;4957713;28;19918;-78
2023/12/26 02:24:20;;;;;;;;;;;230.50;2252.80;;;;;;4971218;28;19914;-78
2023/12/26 02:26:48;;;;;;;;;;;230.50;2252.80;;;;;;4977807;28;19914;-78
2023/12/26 02:29:14;;;;;;;;;;;230.40;2252.80;;;;;;4960688;28;19906;-78
2023/12/26 02:31:40;;;;;;;;;;;230.40;2252.80;;;;;;4977894;28;19976;-78
2023/12/26 02:34:06;;;;;;;;;;;230.40;2252.80;;;;;;4977774;28;19906;-78
2023/12/26 02:36:32;;;;;;;;;;;205.70;2252.80;;;;;;4960690;28;19910;-77
2023/12/26 02:38:59;;;;;;;;;;;205.60;2252.80;;;;;;4976452;28;19928;-78
2023/12/26 02:41:24;;;;;;;;;;;205.50;2252.80;;;;;;4977793;28;19913;-78
2023/12/26 02:43:50;;;;;;;;;;;205.50;2252.80;;;;;;4960555;28;19907;-78
2023/12/26 02:46:16;;;;;;;;;;;205.50;2252.80;;;;;;4977392;28;19914;-78
2023/12/26 02:48:41;;;;;;;;;;;205.50;2252.80;;;;;;4960346;28;20382;-78
2023/12/26 02:51:08;;;;;;;;;;;205.60;2252.80;;;;;;4977560;28;20040;-78
2023/12/26 02:53:33;;;;;;;;;;;205.50;2252.80;;;;;;4977859;28;19917;-78
2023/12/26 02:55:59;;;;;;;;;;;205.50;2252.80;;;;;;4955827;28;19911;-78
2023/12/26 02:58:25;;;;;;;;;;;205.40;2252.80;;;;;;4952858;28;19905;-78
2023/12/26 03:00:50;;;;;;;;;;;205.40;2252.80;;;;;;4960210;28;19906;-79
2023/12/26 03:03:16;;;;;;;;;;;205.40;2252.80;;;;;;4959141;28;19957;-78
2023/12/26 03:05:42;;;;;;;;;;;205.30;2252.80;;;;;;4960136;28;20282;-78
2023/12/26 03:08:07;;;;;;;;;;;205.30;2252.80;;;;;;4960408;28;19910;-78
2023/12/26 03:10:33;;;;;;;;;;;205.30;2252.80;;;;;;4977467;28;19906;-78
2023/12/26 03:12:59;;;;;;;;;;;205.30;2252.80;;;;;;4960181;28;20426;-78
2023/12/26 03:15:24;;;;;;;;;;;205.40;2252.80;;;;;;4959206;28;19914;-78
2023/12/26 03:17:52;;;;;;;;;;;205.40;2252.80;;;;;;4959639;28;19906;-78
2023/12/26 03:20:17;;;;;;;;;;;205.40;2252.80;;;;;;4959961;28;19993;-78
2023/12/26 03:22:43;;;;;;;;;;;205.20;2252.80;;;;;;4958881;28;19952;-78
2023/12/26 03:25:09;;;;;;;;;;;205.20;2252.80;;;;;;4976732;28;19925;-77
2023/12/26 03:27:34;;;;;;;;;;;205.20;2252.80;;;;;;4960009;28;19906;-78
2023/12/26 03:30:00;;;;;;;;;;;205.20;2252.80;;;;;;4976702;28;19910;-78
2023/12/26 03:32:26;;;;;;;;;;;205.30;2252.80;;;;;;4976864;28;19991;-78
2023/12/26 03:34:51;;;;;;;;;;;205.10;2252.80;;;;;;4963668;28;20275;-78
2023/12/26 03:37:17;;;;;;;;;;;205.10;2252.80;;;;;;4976913;28;19926;-78
2023/12/26 03:39:42;;;;;;;;;;;204.80;2252.80;;;;;;4976843;28;19906;-78
2023/12/26 03:42:08;;;;;;;;;;;180.10;2252.80;;;;;;4976547;28;20399;-78
2023/12/26 03:44:34;;;;;;;;;;;180.10;2252.80;;;;;;4976484;28;19906;-78
2023/12/26 03:46:59;;;;;;;;;;;204.80;2252.80;;;;;;4959639;28;20427;-78
2023/12/26 03:49:25;;;;;;;;;;;204.80;2252.80;;;;;;4958943;28;19914;-78
2023/12/26 03:51:51;;;;;;;;;;;204.90;2252.80;;;;;;4965148;28;19964;-78
2023/12/26 03:54:18;;;;;;;;;;;204.80;2252.80;;;;;;4974438;28;19910;-78
2023/12/26 03:56:43;;;;;;;;;;;204.90;2252.80;;;;;;4959163;28;19906;-78
2023/12/26 03:59:09;;;;;;;;;;;205.00;2252.80;;;;;;4976336;28;20017;-78
2023/12/26 04:01:35;;;;;;;;;;;180.10;2252.80;;;;;;4976189;28;19913;-78
2023/12/26 04:04:01;;;;;;;;;;;204.80;2252.80;;;;;;4963186;28;19906;-78
2023/12/26 04:06:26;;;;;;;;;;;180.10;2252.80;;;;;;4959090;28;19914;-78
2023/12/26 04:08:52;;;;;;;;;;;179.90;2252.80;;;;;;4975363;28;20338;-78
2023/12/26 04:11:18;;;;;;;;;;;204.80;2252.80;;;;;;4976177;28;19906;-78
2023/12/26 04:13:44;;;;;;;;;;;204.80;2252.80;;;;;;4958872;28;19906;-78
2023/12/26 04:16:09;;;;;;;;;;;180.10;2252.80;;;;;;4967959;28;19906;-78
2023/12/26 04:18:37;;;;;;;;;;;180.10;2252.80;;;;;;4958949;28;19910;-78
2023/12/26 04:21:02;;;;;;;;;;;180.00;2252.80;;;;;;4958577;28;19913;-78
2023/12/26 04:23:28;;;;;;;;;;;180.00;2252.80;;;;;;4971634;28;20304;-78
2023/12/26 04:25:54;;;;;;;;;;;179.90;2252.80;;;;;;4959067;28;19914;-78
2023/12/26 04:28:19;;;;;;;;;;;179.80;2252.80;;;;;;4945951;28;19906;-77
2023/12/26 04:30:45;;;;;;;;;;;179.80;2252.80;;;;;;4958692;28;19910;-78
2023/12/26 04:33:12;;;;;;;;;;;180.10;2252.80;;;;;;4973309;28;19916;-78
2023/12/26 04:35:38;;;;;;;;;;;180.10;2252.80;;;;;;4975792;28;19906;-78
2023/12/26 04:38:03;;;;;;;;;;;179.90;2252.80;;;;;;4958512;28;20271;-78
2023/12/26 04:40:29;;;;;;;;;;;179.90;2252.80;;;;;;4975954;28;19961;-78
2023/12/26 04:42:54;;;;;;;;;;;179.90;2252.80;;;;;;4958478;28;20343;-78
2023/12/26 04:45:20;;;;;;;;;;;179.80;2252.80;;;;;;4958197;28;19917;-78
2023/12/26 04:47:46;;;;;;;;;;;179.80;2252.80;;;;;;4975781;28;19941;-78
2023/12/26 04:50:11;;;;;;;;;;;179.90;2252.80;;;;;;4974951;28;19956;-78
2023/12/26 04:52:37;;;;;;;;;;;179.80;2252.80;;;;;;4957863;28;20360;-78
2023/12/26 04:55:03;;;;;;;;;;;179.80;2252.80;;;;;;4958085;28;20379;-78
2023/12/26 04:57:29;;;;;;;;;;;179.90;2252.80;;;;;;4975363;28;19906;-78
2023/12/26 04:59:55;;;;;;;;;;;179.90;2252.80;;;;;;4975614;28;19928;-78
2023/12/26 05:02:20;;;;;;;;;;;180.00;2252.80;;;;;;4975132;28;19906;-77
2023/12/26 05:04:46;;;;;;;;;;;180.00;2252.80;;;;;;4975157;28;19906;-77
2023/12/26 05:07:13;;;;;;;;;;;180.10;2252.80;;;;;;4975309;28;19913;-78
2023/12/26 05:09:38;;;;;;;;;;;180.10;2252.80;;;;;;4975363;28;20279;-76
2023/12/26 05:12:04;;;;;;;;;;;180.00;2252.80;;;;;;4974693;28;19906;-77
2023/12/26 05:14:30;;;;;;;;;;;179.90;2252.80;;;;;;4975563;28;19913;-78
2023/12/26 05:16:56;;;;;;;;;;;179.80;2252.80;;;;;;4975406;28;20062;-78
2023/12/26 05:19:21;;;;;;;;;;;179.70;2252.80;;;;;;4975352;28;19910;-78
2023/12/26 05:21:47;;;;;;;;;;;179.80;2252.80;;;;;;4975030;28;20364;-79
2023/12/26 05:24:13;;;;;;;;;;;179.90;2252.80;;;;;;4958144;28;19918;-78
2023/12/26 05:26:42;;;;;;;;;;;179.80;2252.80;;;;;;4957380;28;19930;-78
2023/12/26 05:29:08;;;;;;;;;;;179.70;2252.80;;;;;;4958109;28;20276;-78
2023/12/26 05:31:34;;;;;;;;;;;179.60;2252.80;;;;;;4957895;28;19906;-78
2023/12/26 05:34:02;;;;;;;;;;;179.60;2252.80;;;;;;4957955;28;19906;-78
2023/12/26 05:36:27;;;;;;;;;;;179.60;2252.80;;;;;;4954463;28;19906;-78
2023/12/26 05:38:53;;;;;;;;;;;179.70;2252.80;;;;;;4949899;28;19913;-78
2023/12/26 05:41:19;;;;;;;;;;;179.80;2252.80;;;;;;4957793;28;19913;-78
2023/12/26 05:43:44;;;;;;;;;;;179.70;2252.80;;;;;;4957566;28;20419;-77
2023/12/26 05:46:10;;;;;;;;;;;179.70;2252.80;;;;;;4959195;28;20005;-77
2023/12/26 05:48:36;;;;;;;;;;;179.60;2252.80;;;;;;4961176;28;19929;-78
2023/12/26 05:51:01;;;;;;;;;;;179.70;2252.80;;;;;;4961191;28;19910;-77
2023/12/26 05:53:30;;;;;;;;;;;179.60;2252.80;;;;;;4979068;28;20384;-78
2023/12/26 05:55:56;;;;;;;;;;;179.50;2252.80;;;;;;4961514;28;19906;-78
2023/12/26 05:58:25;;;;;;;;;;;179.30;2252.80;;;;;;4961495;28;20299;-78
2023/12/26 06:00:51;;;;;;;;;;;179.20;2252.80;;;;;;4961086;28;20000;-78
2023/12/26 06:03:17;;;;;;;;;;;154.50;2252.80;;;;;;4958274;29;19957;-78
2023/12/26 06:05:45;;;;;;;;;;;154.40;2252.80;;;;;;4958067;28;19961;-78
2023/12/26 06:08:11;;;;;;;;;;;154.50;2252.80;;;;;;4961186;28;19906;-78
2023/12/26 06:10:36;;;;;;;;;;;179.20;2252.80;;;;;;4958601;28;19906;-78
2023/12/26 06:13:02;;;;;;;;;;;179.40;2252.80;;;;;;4960410;28;19949;-78
2023/12/26 06:15:28;;;;;;;;;;;154.50;2252.80;;;;;;4960691;28;19906;-78
2023/12/26 06:17:54;;;;;;;;;;;179.20;2252.80;;;;;;4960105;28;20348;-78
2023/12/26 06:20:22;;;;;;;;;;;179.30;2252.80;;;;;;4960511;28;19995;-78
2023/12/26 06:22:48;;;;;;;;;;;179.30;2252.80;;;;;;4977220;28;19945;-78
2023/12/26 06:25:14;;;;;;;;;;;179.30;2252.80;;;;;;4960115;28;19969;-78
2023/12/26 06:27:39;;;;;;;;;;;179.20;2252.80;;;;;;4960836;28;19910;-78
2023/12/26 06:30:05;;;;;;;;;;;179.30;2252.80;;;;;;4960549;28;19910;-77
2023/12/26 06:32:31;;;;;;;;;;;179.40;2252.80;;;;;;4977550;28;19910;-78
2023/12/26 06:34:57;;;;;;;;;;;179.40;2252.80;;;;;;4959285;28;19934;-82
2023/12/26 06:37:22;;;;;;;;;;;179.50;2252.80;;;;;;4959782;28;19910;-77
2023/12/26 06:39:48;;;;;;;;;;;179.70;2252.80;;;;;;4975583;28;20024;-77
2023/12/26 06:42:13;;;;;;;;;;;179.70;2252.80;;;;;;4958705;28;19910;-77
2023/12/26 06:44:40;;;;;;;;;;;179.60;2252.80;;;;;;4976650;28;19949;-78
2023/12/26 06:47:06;;;;;;;;;;;179.70;2252.80;;;;;;4976417;28;19968;-77
2023/12/26 06:49:31;;;;;;;;;;;179.60;2252.80;;;;;;4976861;28;19985;-76
2023/12/26 06:51:59;;;;;;;;;;;179.70;2252.80;;;;;;4976650;28;19956;-76
2023/12/26 06:54:24;;;;;;;;;;;179.80;2252.80;;;;;;4976154;28;19966;-76
2023/12/26 06:56:50;;;;;;;;;;;179.90;2252.80;;;;;;4975058;28;19945;-76
2023/12/26 06:59:16;;;;;;;;;;;179.90;2252.80;;;;;;4959542;28;20437;-78
2023/12/26 07:01:45;;;;;;;;;;;179.80;2252.80;;;;;;4976330;28;20409;-76
2023/12/26 07:04:11;;;;;;;;;;;179.70;2252.80;;;;;;4976160;28;20057;-76
2023/12/26 07:06:37;;;;;;;;;;;180.10;2252.80;;;;;;4975931;28;20476;-77
2023/12/26 07:09:02;;;;;;;;;;;180.00;2252.80;;;;;;4975993;28;20049;-77
2023/12/26 07:11:28;;;;;;;;;;;179.90;2252.80;;;;;;4957197;28;19910;-75
2023/12/26 07:13:54;;;;;;;;;;;180.00;2252.80;;;;;;4976444;28;20000;-76
2023/12/26 07:16:19;;;;;;;;;;;180.10;2252.80;;;;;;4959064;28;19977;-76
2023/12/26 07:18:46;;;;;;;;;;;180.00;2252.80;;;;;;4975595;28;20403;-74
2023/12/26 07:21:13;;;;;;;;;;;180.00;2252.80;;;;;;4957966;28;19990;-75
2023/12/26 07:23:38;;;;;;;;;;;180.00;2252.80;;;;;;4976056;28;19926;-76
2023/12/26 07:26:04;;;;;;;;;;;180.10;2252.80;;;;;;4976036;28;19960;-76
2023/12/26 07:28:30;;;;;;;;;;;180.10;2252.80;;;;;;4976017;28;19952;-76
2023/12/26 07:30:56;;;;;;;;;;;204.80;2252.80;;;;;;4974238;28;19942;-77
2023/12/26 07:33:21;;;;;;;;;;;205.00;2252.80;;;;;;4975714;28;19920;-76
2023/12/26 07:35:47;;;;;;;;;;;205.10;2252.80;;;;;;4976017;28;19906;-76
2023/12/26 07:38:12;;;;;;;;;;;205.20;2252.80;;;;;;4975779;28;19914;-77
2023/12/26 07:40:39;;;;;;;;;;;205.30;2252.80;;;;;;4976240;28;19976;-78
2023/12/26 07:43:05;;;;;;;;;;;205.30;2252.80;;;;;;4968336;28;19910;-77
2023/12/26 07:45:30;;;;;;;;;;;205.50;2252.80;;;;;;4975425;28;20371;-77
2023/12/26 07:47:56;;;;;;;;;;;205.60;2252.80;;;;;;4975847;28;19906;-76
2023/12/26 07:50:22;;;;;;;;;;;230.40;2252.80;;;;;;4975041;28;19976;-78
2023/12/26 07:52:48;;;;;;;;;;;230.40;2252.80;;;;;;4975598;28;20379;-77
2023/12/26 07:55:13;;;;;;;;;;;230.40;2252.80;;;;;;4958467;28;19914;-78
2023/12/26 07:57:39;;;;;;;;;;;230.50;2252.80;;;;;;4975800;28;19906;-77
2023/12/26 08:00:05;;;;;;;;;;;230.60;2252.80;;;;;;4976111;28;20431;-78
2023/12/26 08:02:30;;;;;;;;;;;230.70;2252.80;;;;;;4974718;28;19912;-78
2023/12/26 08:04:56;;;;;;;;;;;230.50;2252.80;;;;;;4975722;28;19906;-78
2023/12/26 08:07:21;;;;;;;;;;;230.60;2252.80;;;;;;4976135;28;19968;-78
2023/12/26 08:09:47;;;;;;;;;;;230.70;2252.80;;;;;;4975355;28;20351;-78
2023/12/26 08:12:13;;;;;;;;;;;230.60;2252.80;;;;;;4975522;28;19913;-78
2023/12/26 08:14:38;;;;;;;;;;;230.70;2252.80;;;;;;4975082;28;19910;-77
2023/12/26 08:17:04;;;;;;;;;;;230.80;2252.80;;;;;;4975387;28;19938;-77
2023/12/26 08:19:31;;;;;;;;;;;230.80;2252.80;;;;;;4975273;28;19937;-78
2023/12/26 08:21:56;;;;;;;;;;;230.80;2252.80;;;;;;4974718;28;19972;-78
2023/12/26 08:24:22;;;;;;;;;;;230.90;2252.80;;;;;;4975372;28;19918;-78
2023/12/26 08:26:51;;;;;;;;;;;231.00;2252.80;;;;;;4957422;28;20197;-78
2023/12/26 08:29:17;;;;;;;;;;;231.10;2252.80;;;;;;4957775;28;19910;-78
2023/12/26 08:31:43;;;;;;;;;;;231.10;2252.80;;;;;;4955692;28;20256;-78
2023/12/26 08:34:09;;;;;;;;;;;231.10;2252.80;;;;;;4956658;28;19910;-78
2023/12/26 08:36:35;;;;;;;;;;;231.20;2252.80;;;;;;4957328;28;19960;-78
2023/12/26 08:39:00;;;;;;;;;;;231.20;2252.80;;;;;;4956616;28;19906;-77
2023/12/26 08:41:26;;;;;;;;;;;231.30;2252.80;;;;;;4974517;28;20376;-77
2023/12/26 08:43:51;;;;;;;;;;;256.10;2252.80;;;;;;4957360;28;20359;-77
2023/12/26 08:46:17;;;;;;;;;;;256.20;2252.80;;;;;;4974578;28;19921;-78
2023/12/26 08:48:43;;;;;;;;;;;256.30;2252.80;;;;;;4974815;28;19906;-77
2023/12/26 08:51:08;;;;;;;;;;;256.40;2252.80;;;;;;4954534;28;19932;-76
2023/12/26 08:53:34;;;;;;;;;;;256.50;2252.80;;;;;;4967881;28;20012;-78
2023/12/26 08:56:05;;;;;;;;;;;256.60;2252.80;;;;;;4973255;28;20291;-77
2023/12/26 08:58:32;;;;;;;;;;;256.60;2252.80;;;;;;4974428;28;19922;-77
2023/12/26 09:01:01;;;;;;;;;;;256.70;2252.80;;;;;;4974191;28;19960;-76
2023/12/26 09:03:27;;;;;;;;;;;256.60;2252.80;;;;;;4973708;28;19937;-77
2023/12/26 09:05:53;;;;;;;;;;;256.50;2252.80;;;;;;4971938;28;19965;-77
2023/12/26 09:08:18;;;;;;;;;;;256.70;2252.80;;;;;;4974815;28;19906;-77
2023/12/26 09:10:44;;;;;;;;;;;256.80;2252.80;;;;;;4974467;28;20278;-77
2023/12/26 09:13:11;;;;;;;;;;;256.80;2252.80;;;;;;4974278;28;20360;-76
2023/12/26 09:15:36;;;;;;;;;;;256.90;2252.80;;;;;;4974563;28;20357;-76
2023/12/26 09:18:02;;;;;;;;;;;256.90;2252.80;;;;;;4974448;28;19910;-77
2023/12/26 09:20:28;;;;;;;;;;;256.90;2252.80;;;;;;4955982;28;19981;-77
2023/12/26 09:22:53;;;;;;;;;;;256.90;2252.80;;;;;;4973866;28;19984;-76
2023/12/26 09:25:19;;;;;;;;;;;281.70;2278.40;;;;;;4956046;28;19941;-77
2023/12/26 09:27:45;;;;;;;;;;;281.90;2278.40;;;;;;4957002;28;19917;-78
2023/12/26 09:30:11;;;;;;;;;;;282.10;2278.40;;;;;;4956642;28;19910;-77
2023/12/26 09:32:36;;;;;;;;;;;282.30;2278.40;;;;;;4961783;28;19926;-77
2023/12/26 09:35:02;;;;;;;;;;;282.50;2278.40;;;;;;4957097;28;19910;-77
2023/12/26 09:37:27;;;;;;;;;;;307.40;2304.00;;;;;;4956686;28;20347;-78
2023/12/26 09:39:53;;;;;;;;;;;307.50;2304.00;;;;;;4974066;28;20364;-77
2023/12/26 09:42:22;;;;;;;;;;;307.70;2304.00;;;;;;4974260;28;19934;-77
2023/12/26 09:44:49;;;;;;;;;;;307.80;2304.00;;;;;;4974540;28;19948;-79
2023/12/26 09:47:16;;;;;;;;;;;308.00;2304.00;;;;;;4973849;28;19965;-79
2023/12/26 09:49:43;;;;;;;;;;;332.80;2329.60;;;;;;4957345;28;19910;-79
2023/12/26 09:52:09;;;;;;;;;;;333.00;2329.60;;;;;;4974245;28;19914;-79
2023/12/26 09:54:37;;;;;;;;;;;333.20;2329.60;;;;;;4974171;28;19961;-78
2023/12/26 09:57:03;;;;;;;;;;;333.30;2329.60;;;;;;4972263;28;19910;-79
2023/12/26 09:59:29;;;;;;;;;;;333.60;2329.60;;;;;;4956972;28;20357;-79
2023/12/26 10:01:55;;;;;;;;;;;333.70;2329.60;;;;;;4962231;28;19996;-79
2023/12/26 10:04:20;;;;;;;;;;;358.40;2329.60;;;;;;4956845;28;19960;-78
2023/12/26 10:06:46;;;;;;;;;;;358.60;2329.60;;;;;;4956553;28;19921;-79
2023/12/26 10:09:12;;;;;;;;;;;358.80;2329.60;;;;;;4956645;28;19940;-78
2023/12/26 10:11:44;;;;;;;;;;;359.10;2329.60;;;;;;4974361;28;20284;-79
2023/12/26 10:14:10;;;;;;;;;;;384.10;2329.60;;;;;;4974452;28;19906;-79
2023/12/26 10:16:35;;;;;;;;;;;384.30;2329.60;;;;;;4974218;28;19906;-79
2023/12/26 10:19:01;;;;;;;;;;;384.70;2329.60;;;;;;4956609;28;20283;-79
2023/12/26 10:21:28;;;;;;;;;;;409.70;2355.20;;;;;;4954999;28;19993;-79
2023/12/26 10:23:55;;;;;;;;;;;409.70;2355.20;;;;;;4973077;28;19929;-79
2023/12/26 10:26:21;;;;;;;;;;;410.00;2355.20;;;;;;4956254;28;20261;-79
2023/12/26 10:28:47;;;;;;;;;;;410.20;2355.20;;;;;;4973228;28;20383;-78
2023/12/26 10:31:18;;;;;;;;;;;410.10;2355.20;;;;;;4974808;28;19914;-78
2023/12/26 10:33:44;;;;;;;;;;;410.30;2355.20;;;;;;4964447;28;20315;-78
2023/12/26 10:36:12;;;;;;;;;;;410.40;2355.20;;;;;;4977312;28;19933;-78
2023/12/26 10:38:39;;;;;;;;;;;435.50;2355.20;;;;;;4976556;28;19929;-77
2023/12/26 10:41:10;;;;;;;;;;;435.20;2355.20;;;;;;4963312;28;19910;-77
2023/12/26 10:43:43;;;;;;;;;;;435.20;2355.20;;;;;;4977197;28;20463;-76
2023/12/26 10:46:08;;;;;;;;;;;435.40;2355.20;;;;;;4976194;28;19921;-79
2023/12/26 10:48:34;;;;;;;;;;;435.40;2355.20;;;;;;4977233;28;20333;-77
2023/12/26 10:51:00;;;;;;;;;;;435.80;2304.00;;;;;;4976115;28;20311;-78
2023/12/26 10:53:43;;;;;;;;;;;435.90;2304.00;;;;;;4976478;28;20265;-78
2023/12/26 10:56:11;;;;;;;;;;;435.90;2278.40;;;;;;4974902;28;19917;-79
2023/12/26 10:58:37;;;;;;;;;;;436.00;2252.80;;;;;;4963279;28;19910;-78
2023/12/26 11:01:03;;;;;;;;;;;435.90;2252.80;;;;;;4959381;28;20312;-81
2023/12/26 13:53:45;;;;;;;;;;;409.70;2355.20;;;;;;4968093;28;19921;-76
2023/12/26 13:56:11;;;;;;;;;;;409.70;2355.20;;;;;;4972145;28;19906;-75
2023/12/26 13:58:36;;;;;;;;;;;409.70;2355.20;;;;;;4973869;28;19906;-76
2023/12/26 14:01:03;;;;;;;;;;;409.60;2355.20;;;;;;4956754;28;19913;-76
2023/12/26 14:03:28;;;;;;;;;;;409.60;2355.20;;;;;;4956794;28;19906;-76
2023/12/26 14:05:54;;;;;;;;;;;409.60;2355.20;;;;;;4973915;28;19920;-76
2023/12/26 14:08:20;;;;;;;;;;;409.60;2355.20;;;;;;4960017;28;20008;-76
2023/12/26 14:10:46;;;;;;;;;;;409.60;2355.20;;;;;;4977407;28;19917;-75
2023/12/26 14:13:12;;;;;;;;;;;409.60;2355.20;;;;;;4975993;28;19913;-77
2023/12/26 14:15:38;;;;;;;;;;;384.90;2329.60;;;;;;4976776;28;19910;-78
2023/12/26 14:18:08;;;;;;;;;;;409.60;2355.20;;;;;;4964796;28;19937;-75
2023/12/26 14:20:33;;;;;;;;;;;384.90;2329.60;;;;;;4976333;28;20386;-76
2023/12/26 14:22:59;;;;;;;;;;;384.90;2329.60;;;;;;4959046;28;19918;-79
2023/12/26 14:25:27;;;;;;;;;;;384.90;2329.60;;;;;;4977631;28;19960;-78
2023/12/26 14:27:53;;;;;;;;;;;384.80;2329.60;;;;;;4973456;28;19917;-78
2023/12/26 14:30:19;;;;;;;;;;;384.70;2329.60;;;;;;4958406;28;20280;-77
2023/12/26 14:32:45;;;;;;;;;;;384.70;2329.60;;;;;;4958181;28;19906;-77
2023/12/26 14:35:10;;;;;;;;;;;384.70;2329.60;;;;;;4960182;28;19945;-78
2023/12/26 14:37:36;;;;;;;;;;;384.70;2329.60;;;;;;4959369;28;19910;-78
2023/12/26 14:40:02;;;;;;;;;;;384.70;2329.60;;;;;;4977425;28;19905;-79
2023/12/26 14:42:28;;;;;;;;;;;384.60;2329.60;;;;;;4960083;28;19910;-79
2023/12/26 14:44:53;;;;;;;;;;;384.40;2329.60;;;;;;4959962;28;19961;-77
2023/12/26 14:47:19;;;;;;;;;;;384.40;2329.60;;;;;;4975603;28;19918;-78
2023/12/26 14:49:45;;;;;;;;;;;384.30;2329.60;;;;;;4958986;28;19997;-77
2023/12/26 14:52:11;;;;;;;;;;;384.20;2329.60;;;;;;4965098;28;19956;-77
2023/12/26 14:54:37;;;;;;;;;;;384.10;2329.60;;;;;;4977946;28;19910;-77
2023/12/26 14:57:02;;;;;;;;;;;359.30;2329.60;;;;;;4987580;28;19964;-77
2023/12/26 14:59:28;;;;;;;;;;;359.20;2329.60;;;;;;4976752;28;19965;-78
2023/12/26 15:02:03;;;;;;;;;;;359.20;2329.60;;;;;;4976580;28;19910;-77
2023/12/26 15:04:29;;;;;;;;;;;359.00;2329.60;;;;;;4976730;28;19913;-77
2023/12/26 15:06:58;;;;;;;;;;;359.00;2329.60;;;;;;4976322;28;20283;-78
2023/12/26 15:09:24;;;;;;;;;;;359.00;2329.60;;;;;;4973094;28;20379;-78
2023/12/26 15:11:50;;;;;;;;;;;358.90;2329.60;;;;;;4974472;28;19996;-78
2023/12/26 15:14:16;;;;;;;;;;;358.90;2329.60;;;;;;4974659;28;19906;-78
2023/12/26 15:16:41;;;;;;;;;;;359.00;2329.60;;;;;;4973743;28;19913;-78
2023/12/26 15:19:07;;;;;;;;;;;359.00;2329.60;;;;;;4957867;28;19906;-78
2023/12/26 15:21:33;;;;;;;;;;;358.80;2329.60;;;;;;4976279;28;19914;-78
2023/12/26 15:23:58;;;;;;;;;;;358.70;2329.60;;;;;;4953824;28;19923;-78
2023/12/26 15:26:24;;;;;;;;;;;358.60;2329.60;;;;;;4954793;28;19914;-77
2023/12/26 15:28:50;;;;;;;;;;;358.40;2329.60;;;;;;4958414;28;20319;-79
2023/12/26 15:31:16;;;;;;;;;;;333.60;2329.60;;;;;;4956843;28;20315;-78
2023/12/26 15:33:42;;;;;;;;;;;333.60;2329.60;;;;;;4958428;28;19906;-78
2023/12/26 15:36:17;;;;;;;;;;;333.50;2329.60;;;;;;4976440;28;19906;-79
2023/12/26 15:38:44;;;;;;;;;;;333.60;2329.60;;;;;;4976026;28;19910;-78
2023/12/26 15:41:09;;;;;;;;;;;333.70;2329.60;;;;;;4974019;28;19934;-79
2023/12/26 15:43:35;;;;;;;;;;;333.70;2329.60;;;;;;4958846;28;19906;-79
2023/12/26 15:46:00;;;;;;;;;;;333.70;2329.60;;;;;;4957551;28;20008;-79
2023/12/26 15:48:26;;;;;;;;;;;333.70;2329.60;;;;;;4956063;28;19926;-79
2023/12/26 15:50:52;;;;;;;;;;;333.60;2329.60;;;;;;4955964;28;19910;-79
2023/12/26 15:53:17;;;;;;;;;;;333.50;2329.60;;;;;;4957930;28;19910;-78
2023/12/26 15:55:43;;;;;;;;;;;333.40;2329.60;;;;;;4957785;28;19964;-78
2023/12/26 15:58:09;;;;;;;;;;;333.40;2329.60;;;;;;4962565;28;20045;-78
2023/12/26 16:00:37;;;;;;;;;;;333.40;2329.60;;;;;;4957400;28;20323;-79
2023/12/26 16:03:03;;;;;;;;;;;333.40;2329.60;;;;;;4965028;28;19906;-79
2023/12/26 16:05:29;;;;;;;;;;;333.30;2329.60;;;;;;4959803;28;19910;-79
2023/12/26 16:07:55;;;;;;;;;;;333.30;2329.60;;;;;;4964413;28;20275;-78
2023/12/26 16:10:23;;;;;;;;;;;333.40;2329.60;;;;;;4957514;28;20006;-78
2023/12/26 16:12:51;;;;;;;;;;;333.40;2329.60;;;;;;4957078;28;19914;-78
2023/12/26 16:15:17;;;;;;;;;;;333.30;2329.60;;;;;;4957947;28;19906;-78
2023/12/26 16:17:43;;;;;;;;;;;333.20;2329.60;;;;;;4957382;28;19916;-79
2023/12/26 16:20:08;;;;;;;;;;;333.20;2329.60;;;;;;4953356;28;19912;-79
2023/12/26 16:22:34;;;;;;;;;;;333.20;2329.60;;;;;;4973764;28;19918;-79
2023/12/26 16:25:00;;;;;;;;;;;333.20;2329.60;;;;;;4974682;28;19917;-79